createdAt,value
2024-05-09T00:01:30.955Z,100335.16
2024-05-09T00:04:01.314Z,100337.50
2024-05-09T00:06:31.592Z,100330.78
2024-05-09T00:09:04.644Z,100318.88
2024-05-09T00:11:35.029Z,100317.91
2024-05-09T00:14:05.888Z,100329.13
2024-05-09T00:16:36.267Z,100315.72
2024-05-09T00:19:06.695Z,100325.25
2024-05-09T00:21:37.061Z,100326.25
2024-05-09T00:24:10.006Z,100328.44
2024-05-09T00:26:40.271Z,100327.13
2024-05-09T00:29:10.635Z,100329.63
2024-05-09T00:31:40.939Z,100328.94
2024-05-09T00:34:11.284Z,100325.44
2024-05-09T00:36:41.624Z,100321.06
2024-05-09T00:39:14.612Z,100316.38
2024-05-09T00:41:44.932Z,100307.81
2024-05-09T00:44:15.393Z,100310.03
2024-05-09T00:46:45.982Z,100311.19
2024-05-09T00:49:16.657Z,100310.50
2024-05-09T00:51:47.121Z,100298.22
2024-05-09T00:54:21.651Z,100311.94
2024-05-09T00:56:52.932Z,100307.22
2024-05-09T00:59:23.609Z,100308.91
2024-05-09T01:01:54.246Z,100297.88
2024-05-09T01:04:24.771Z,100294.81
2024-05-09T01:06:55.500Z,100301.53
2024-05-09T01:09:28.586Z,100289.28
2024-05-09T01:11:58.872Z,100289.75
2024-05-09T01:14:29.302Z,100281.34
2024-05-09T01:16:59.905Z,100283.19
2024-05-09T01:19:31.834Z,100282.13
2024-05-09T01:22:02.244Z,100282.59
2024-05-09T01:24:35.143Z,100277.56
2024-05-09T01:27:05.430Z,100280.06
2024-05-09T01:29:35.849Z,100274.00
2024-05-09T01:32:06.457Z,100277.00
2024-05-09T01:34:36.852Z,100265.44
2024-05-09T01:37:07.436Z,100262.75
2024-05-09T01:39:40.375Z,100267.81
2024-05-09T01:42:10.627Z,100257.56
2024-05-09T01:44:41.149Z,100249.00
2024-05-09T01:47:11.607Z,100258.25
2024-05-09T01:49:43.401Z,100253.19
2024-05-09T01:52:13.731Z,100257.72
2024-05-09T01:54:46.715Z,100249.00
2024-05-09T01:57:16.991Z,100245.09
2024-05-09T01:59:47.244Z,100249.25
2024-05-09T02:02:17.781Z,100245.56
2024-05-09T02:04:50.243Z,100249.25
2024-05-09T02:07:20.897Z,100244.78
2024-05-09T02:09:55.627Z,100240.41
2024-05-09T02:12:25.970Z,100244.75
2024-05-09T02:14:56.266Z,100243.38
2024-05-09T02:17:26.645Z,100241.38
2024-05-09T02:19:57.151Z,100239.38
2024-05-09T02:22:27.482Z,100243.22
2024-05-09T02:25:00.421Z,100240.00
2024-05-09T02:27:30.700Z,100240.63
2024-05-09T02:30:00.938Z,100236.56
2024-05-09T02:32:31.437Z,100239.38
2024-05-09T02:35:01.893Z,100231.50
2024-05-09T02:37:32.231Z,100224.78
2024-05-09T02:40:03.298Z,100229.13
2024-05-09T02:42:33.636Z,100224.09
2024-05-09T02:45:01.248Z,100218.19
2024-05-09T02:47:31.571Z,100219.81
2024-05-09T02:49:59.480Z,100215.56
2024-05-09T02:52:29.735Z,100203.53
2024-05-09T02:54:57.344Z,100203.78
2024-05-09T02:57:30.248Z,100197.72
2024-05-09T02:59:57.851Z,100196.44
2024-05-09T03:02:31.056Z,100196.44
2024-05-09T03:04:59.286Z,100190.53
2024-05-09T03:07:29.600Z,100192.44
2024-05-09T03:09:57.192Z,100184.03
2024-05-09T03:12:31.324Z,100181.66
2024-05-09T03:14:58.942Z,100185.31
2024-05-09T03:17:29.322Z,100182.19
2024-05-09T03:19:57.057Z,100178.84
2024-05-09T03:22:27.345Z,100176.31
2024-05-09T03:24:55.009Z,100180.97
2024-05-09T03:27:25.248Z,100181.97
2024-05-09T03:29:55.533Z,100188.91
2024-05-09T03:32:25.895Z,100188.41
2024-05-09T03:34:53.598Z,100189.25
2024-05-09T03:37:23.859Z,100179.84
2024-05-09T03:39:54.062Z,100188.91
2024-05-09T03:42:24.314Z,100190.03
2024-05-09T03:44:54.661Z,100185.53
2024-05-09T03:47:25.017Z,100179.19
2024-05-09T03:49:55.347Z,100187.50
2024-05-09T03:52:25.613Z,100182.84
2024-05-09T03:54:53.192Z,100185.69
2024-05-09T03:57:23.445Z,100177.66
2024-05-09T03:59:51.035Z,100172.16
2024-05-09T04:02:21.395Z,100176.53
2024-05-09T04:04:51.826Z,100181.31
2024-05-09T04:07:22.156Z,100174.31
2024-05-09T04:09:49.751Z,100184.19
2024-05-09T04:12:20.066Z,100175.19
2024-05-09T04:14:47.691Z,100176.19
2024-05-09T04:17:18.045Z,100176.59
2024-05-09T04:19:45.716Z,100171.88
2024-05-09T04:22:18.689Z,100173.84
2024-05-09T04:24:46.320Z,100169.97
2024-05-09T04:27:16.576Z,100170.56
2024-05-09T04:29:44.178Z,100158.69
2024-05-09T04:32:14.521Z,100162.91
2024-05-09T04:34:42.237Z,100161.22
2024-05-09T04:37:12.478Z,100155.91
2024-05-09T04:39:42.725Z,100155.09
2024-05-09T04:42:12.941Z,100154.81
2024-05-09T04:44:40.689Z,100161.00
2024-05-09T04:47:11.083Z,100160.28
2024-05-09T04:49:38.844Z,100164.03
2024-05-09T04:52:09.626Z,100166.13
2024-05-09T04:54:37.232Z,100164.16
2024-05-09T04:57:10.182Z,100167.94
2024-05-09T04:59:37.842Z,100170.31
2024-05-09T05:02:08.445Z,100172.59
2024-05-09T05:04:36.141Z,100172.06
2024-05-09T05:07:06.509Z,100182.31
2024-05-09T05:09:34.183Z,100174.97
2024-05-09T05:12:24.736Z,100181.38
2024-05-09T05:14:55.102Z,100182.63
2024-05-09T05:17:25.419Z,100184.44
2024-05-09T05:19:53.351Z,100185.44
2024-05-09T05:22:25.024Z,100190.78
2024-05-09T05:24:52.674Z,100185.13
2024-05-09T05:27:22.952Z,100185.28
2024-05-09T05:29:50.575Z,100192.41
2024-05-09T05:32:23.712Z,100188.16
2024-05-09T05:34:51.478Z,100182.97
2024-05-09T05:37:21.816Z,100183.50
2024-05-09T05:39:49.407Z,100187.41
2024-05-09T05:42:19.910Z,100186.22
2024-05-09T05:44:47.494Z,100180.97
2024-05-09T05:47:17.800Z,100177.00
2024-05-09T05:49:48.080Z,100179.13
2024-05-09T05:52:18.357Z,100184.94
2024-05-09T05:54:48.427Z,100182.81
2024-05-09T05:57:19.193Z,100183.72
2024-05-09T05:59:46.819Z,100171.50
2024-05-09T06:02:17.202Z,100166.00
2024-05-09T06:04:45.037Z,100161.03
2024-05-09T06:07:17.955Z,100149.66
2024-05-09T06:09:47.628Z,100152.09
2024-05-09T06:12:19.396Z,100147.03
2024-05-09T06:14:47.101Z,100149.13
2024-05-09T06:17:17.702Z,100157.72
2024-05-09T06:19:45.452Z,100154.50
2024-05-09T06:22:18.463Z,100152.03
2024-05-09T06:24:46.291Z,100150.78
2024-05-09T06:27:16.532Z,100150.50
2024-05-09T06:29:44.169Z,100149.75
2024-05-09T06:32:14.495Z,100149.81
2024-05-09T06:34:42.285Z,100155.44
2024-05-09T06:37:12.620Z,100152.22
